<?xml version="1.0" encoding="UTF-8" standalone="no" ?>
<gpx xmlns="http://www.topografix.com/GPX/1/1" xmlns:xsi="http://www.w3.org/2001/XMLSchema-instance" xsi:schemaLocation="http://www.topografix.com/GPX/1/1 http://www.topografix.com/GPX/1/1/gpx.xsd" version="1.1" creator="VisuGPX - https://www.visugpx.com">
  <metadata>
    <name>Hippodrome-Cens-Gaudiniere</name>
  </metadata>
  <trk>
    <name><![CDATA[Hippodrome-Cens-Gaudiniere]]></name>
    <trkseg>
      <trkpt lat="47.24495" lon="-1.56136">
        <ele>24</ele>
        <time>2022-02-14T11:16:58Z</time>
      </trkpt>
      <trkpt lat="47.24484" lon="-1.5615">
        <ele>23</ele>
        <time>2022-02-14T11:17:10Z</time>
      </trkpt>
      <trkpt lat="47.24483" lon="-1.56153">
        <ele>22</ele>
        <time>2022-02-14T11:17:11Z</time>
      </trkpt>
      <trkpt lat="47.24486" lon="-1.56175">
        <ele>22</ele>
        <time>2022-02-14T11:17:24Z</time>
      </trkpt>
      <trkpt lat="47.24493" lon="-1.56204">
        <ele>24</ele>
        <time>2022-02-14T11:17:40Z</time>
      </trkpt>
      <trkpt lat="47.24496" lon="-1.56246">
        <ele>25</ele>
        <time>2022-02-14T11:18:03Z</time>
      </trkpt>
      <trkpt lat="47.24494" lon="-1.5627">
        <ele>24</ele>
        <time>2022-02-14T11:18:16Z</time>
      </trkpt>
      <trkpt lat="47.24486" lon="-1.56319">
        <ele>23</ele>
        <time>2022-02-14T11:18:44Z</time>
      </trkpt>
      <trkpt lat="47.24484" lon="-1.56339">
        <ele>23</ele>
        <time>2022-02-14T11:18:55Z</time>
      </trkpt>
      <trkpt lat="47.2448" lon="-1.56344">
        <ele>23</ele>
        <time>2022-02-14T11:18:59Z</time>
      </trkpt>
      <trkpt lat="47.24477" lon="-1.56351">
        <ele>23</ele>
        <time>2022-02-14T11:19:04Z</time>
      </trkpt>
      <trkpt lat="47.24467" lon="-1.56397">
        <ele>22</ele>
        <time>2022-02-14T11:19:30Z</time>
      </trkpt>
      <trkpt lat="47.24459" lon="-1.56422">
        <ele>21</ele>
        <time>2022-02-14T11:19:45Z</time>
      </trkpt>
      <trkpt lat="47.24456" lon="-1.56446">
        <ele>20</ele>
        <time>2022-02-14T11:19:58Z</time>
      </trkpt>
      <trkpt lat="47.24454" lon="-1.56466">
        <ele>19</ele>
        <time>2022-02-14T11:20:09Z</time>
      </trkpt>
      <trkpt lat="47.24456" lon="-1.56477">
        <ele>19</ele>
        <time>2022-02-14T11:20:15Z</time>
      </trkpt>
      <trkpt lat="47.24466" lon="-1.56502">
        <ele>19</ele>
        <time>2022-02-14T11:20:31Z</time>
      </trkpt>
      <trkpt lat="47.24441" lon="-1.5649">
        <ele>18</ele>
        <time>2022-02-14T11:20:52Z</time>
      </trkpt>
      <trkpt lat="47.24423" lon="-1.56477">
        <ele>17</ele>
        <time>2022-02-14T11:21:08Z</time>
      </trkpt>
      <trkpt lat="47.24416" lon="-1.56478">
        <ele>16</ele>
        <time>2022-02-14T11:21:14Z</time>
      </trkpt>
      <trkpt lat="47.24405" lon="-1.5649">
        <ele>17</ele>
        <time>2022-02-14T11:21:25Z</time>
      </trkpt>
      <trkpt lat="47.24397" lon="-1.56504">
        <ele>18</ele>
        <time>2022-02-14T11:21:35Z</time>
      </trkpt>
      <trkpt lat="47.24383" lon="-1.56515">
        <ele>19</ele>
        <time>2022-02-14T11:21:47Z</time>
      </trkpt>
      <trkpt lat="47.24386" lon="-1.56543">
        <ele>19</ele>
        <time>2022-02-14T11:22:03Z</time>
      </trkpt>
      <trkpt lat="47.24381" lon="-1.5656">
        <ele>19</ele>
        <time>2022-02-14T11:22:13Z</time>
      </trkpt>
      <trkpt lat="47.24379" lon="-1.56573">
        <ele>20</ele>
        <time>2022-02-14T11:22:20Z</time>
      </trkpt>
      <trkpt lat="47.2438" lon="-1.56596">
        <ele>19</ele>
        <time>2022-02-14T11:22:33Z</time>
      </trkpt>
      <trkpt lat="47.24386" lon="-1.56673">
        <ele>18</ele>
        <time>2022-02-14T11:23:15Z</time>
      </trkpt>
      <trkpt lat="47.24393" lon="-1.56738">
        <ele>17</ele>
        <time>2022-02-14T11:23:51Z</time>
      </trkpt>
      <trkpt lat="47.24392" lon="-1.56764">
        <ele>17</ele>
        <time>2022-02-14T11:24:05Z</time>
      </trkpt>
      <trkpt lat="47.24384" lon="-1.56791">
        <ele>18</ele>
        <time>2022-02-14T11:24:21Z</time>
      </trkpt>
      <trkpt lat="47.24377" lon="-1.56795">
        <ele>19</ele>
        <time>2022-02-14T11:24:27Z</time>
      </trkpt>
      <trkpt lat="47.24401" lon="-1.56862">
        <ele>15</ele>
        <time>2022-02-14T11:25:08Z</time>
      </trkpt>
      <trkpt lat="47.24407" lon="-1.56888">
        <ele>14</ele>
        <time>2022-02-14T11:25:23Z</time>
      </trkpt>
      <trkpt lat="47.24417" lon="-1.56914">
        <ele>12</ele>
        <time>2022-02-14T11:25:39Z</time>
      </trkpt>
      <trkpt lat="47.24449" lon="-1.56968">
        <ele>15</ele>
        <time>2022-02-14T11:26:18Z</time>
      </trkpt>
      <trkpt lat="47.24466" lon="-1.56986">
        <ele>17</ele>
        <time>2022-02-14T11:26:35Z</time>
      </trkpt>
      <trkpt lat="47.24481" lon="-1.56998">
        <ele>18</ele>
        <time>2022-02-14T11:26:48Z</time>
      </trkpt>
      <trkpt lat="47.2451" lon="-1.57013">
        <ele>19</ele>
        <time>2022-02-14T11:27:13Z</time>
      </trkpt>
      <trkpt lat="47.24521" lon="-1.57026">
        <ele>19</ele>
        <time>2022-02-14T11:27:24Z</time>
      </trkpt>
      <trkpt lat="47.24525" lon="-1.57039">
        <ele>19</ele>
        <time>2022-02-14T11:27:32Z</time>
      </trkpt>
      <trkpt lat="47.24525" lon="-1.57061">
        <ele>19</ele>
        <time>2022-02-14T11:27:44Z</time>
      </trkpt>
      <trkpt lat="47.24521" lon="-1.57106">
        <ele>17</ele>
        <time>2022-02-14T11:28:09Z</time>
      </trkpt>
      <trkpt lat="47.24522" lon="-1.57121">
        <ele>17</ele>
        <time>2022-02-14T11:28:17Z</time>
      </trkpt>
      <trkpt lat="47.24517" lon="-1.57122">
        <ele>17</ele>
        <time>2022-02-14T11:28:21Z</time>
      </trkpt>
      <trkpt lat="47.24534" lon="-1.57142">
        <ele>18</ele>
        <time>2022-02-14T11:28:38Z</time>
      </trkpt>
      <trkpt lat="47.24538" lon="-1.57168">
        <ele>19</ele>
        <time>2022-02-14T11:28:53Z</time>
      </trkpt>
      <trkpt lat="47.24539" lon="-1.57178">
        <ele>19</ele>
        <time>2022-02-14T11:28:58Z</time>
      </trkpt>
      <trkpt lat="47.24537" lon="-1.57202">
        <ele>19</ele>
        <time>2022-02-14T11:29:12Z</time>
      </trkpt>
      <trkpt lat="47.24533" lon="-1.57216">
        <ele>19</ele>
        <time>2022-02-14T11:29:20Z</time>
      </trkpt>
      <trkpt lat="47.24532" lon="-1.57235">
        <ele>19</ele>
        <time>2022-02-14T11:29:30Z</time>
      </trkpt>
      <trkpt lat="47.24535" lon="-1.57284">
        <ele>20</ele>
        <time>2022-02-14T11:29:57Z</time>
      </trkpt>
      <trkpt lat="47.24531" lon="-1.57304">
        <ele>19</ele>
        <time>2022-02-14T11:30:08Z</time>
      </trkpt>
      <trkpt lat="47.24544" lon="-1.57368">
        <ele>19</ele>
        <time>2022-02-14T11:30:45Z</time>
      </trkpt>
      <trkpt lat="47.24554" lon="-1.57427">
        <ele>18</ele>
        <time>2022-02-14T11:31:18Z</time>
      </trkpt>
      <trkpt lat="47.24565" lon="-1.57454">
        <ele>18</ele>
        <time>2022-02-14T11:31:35Z</time>
      </trkpt>
      <trkpt lat="47.24583" lon="-1.57478">
        <ele>16</ele>
        <time>2022-02-14T11:31:54Z</time>
      </trkpt>
      <trkpt lat="47.246" lon="-1.57511">
        <ele>16</ele>
        <time>2022-02-14T11:32:17Z</time>
      </trkpt>
      <trkpt lat="47.24618" lon="-1.57519">
        <ele>16</ele>
        <time>2022-02-14T11:32:32Z</time>
      </trkpt>
      <trkpt lat="47.24631" lon="-1.57536">
        <ele>16</ele>
        <time>2022-02-14T11:32:46Z</time>
      </trkpt>
      <trkpt lat="47.24648" lon="-1.57547">
        <ele>16</ele>
        <time>2022-02-14T11:33:01Z</time>
      </trkpt>
      <trkpt lat="47.24657" lon="-1.57559">
        <ele>15</ele>
        <time>2022-02-14T11:33:10Z</time>
      </trkpt>
      <trkpt lat="47.2467" lon="-1.57601">
        <ele>13</ele>
        <time>2022-02-14T11:33:35Z</time>
      </trkpt>
      <trkpt lat="47.24681" lon="-1.57626">
        <ele>12</ele>
        <time>2022-02-14T11:33:52Z</time>
      </trkpt>
      <trkpt lat="47.24725" lon="-1.57717">
        <ele>11</ele>
        <time>2022-02-14T11:34:52Z</time>
      </trkpt>
      <trkpt lat="47.24727" lon="-1.57747">
        <ele>11</ele>
        <time>2022-02-14T11:35:09Z</time>
      </trkpt>
      <trkpt lat="47.24721" lon="-1.57745">
        <ele>11</ele>
        <time>2022-02-14T11:35:14Z</time>
      </trkpt>
      <trkpt lat="47.24706" lon="-1.57741">
        <ele>11</ele>
        <time>2022-02-14T11:35:26Z</time>
      </trkpt>
      <trkpt lat="47.247" lon="-1.57739">
        <ele>11</ele>
        <time>2022-02-14T11:35:31Z</time>
      </trkpt>
      <trkpt lat="47.24696" lon="-1.57745">
        <ele>11</ele>
        <time>2022-02-14T11:35:35Z</time>
      </trkpt>
      <trkpt lat="47.24694" lon="-1.57758">
        <ele>12</ele>
        <time>2022-02-14T11:35:42Z</time>
      </trkpt>
      <trkpt lat="47.24686" lon="-1.57749">
        <ele>12</ele>
        <time>2022-02-14T11:35:51Z</time>
      </trkpt>
      <trkpt lat="47.24678" lon="-1.57756">
        <ele>12</ele>
        <time>2022-02-14T11:35:58Z</time>
      </trkpt>
      <trkpt lat="47.24681" lon="-1.57769">
        <ele>12</ele>
        <time>2022-02-14T11:36:05Z</time>
      </trkpt>
      <trkpt lat="47.24678" lon="-1.57782">
        <ele>13</ele>
        <time>2022-02-14T11:36:13Z</time>
      </trkpt>
      <trkpt lat="47.24675" lon="-1.57786">
        <ele>13</ele>
        <time>2022-02-14T11:36:16Z</time>
      </trkpt>
      <trkpt lat="47.24674" lon="-1.57787">
        <ele>13</ele>
        <time>2022-02-14T11:36:17Z</time>
      </trkpt>
      <trkpt lat="47.24641" lon="-1.57802">
        <ele>18</ele>
        <time>2022-02-14T11:36:45Z</time>
      </trkpt>
      <trkpt lat="47.24633" lon="-1.57809">
        <ele>19</ele>
        <time>2022-02-14T11:36:52Z</time>
      </trkpt>
      <trkpt lat="47.24619" lon="-1.57834">
        <ele>22</ele>
        <time>2022-02-14T11:37:10Z</time>
      </trkpt>
      <trkpt lat="47.24612" lon="-1.57843">
        <ele>23</ele>
        <time>2022-02-14T11:37:17Z</time>
      </trkpt>
      <trkpt lat="47.24581" lon="-1.57868">
        <ele>27</ele>
        <time>2022-02-14T11:37:46Z</time>
      </trkpt>
      <trkpt lat="47.24546" lon="-1.57903">
        <ele>30</ele>
        <time>2022-02-14T11:38:19Z</time>
      </trkpt>
      <trkpt lat="47.24549" lon="-1.57902">
        <ele>30</ele>
        <time>2022-02-14T11:38:22Z</time>
      </trkpt>
      <trkpt lat="47.24548" lon="-1.57922">
        <ele>30</ele>
        <time>2022-02-14T11:38:33Z</time>
      </trkpt>
      <trkpt lat="47.24546" lon="-1.57933">
        <ele>30</ele>
        <time>2022-02-14T11:38:39Z</time>
      </trkpt>
      <trkpt lat="47.2454" lon="-1.57939">
        <ele>31</ele>
        <time>2022-02-14T11:38:45Z</time>
      </trkpt>
      <trkpt lat="47.24537" lon="-1.57944">
        <ele>31</ele>
        <time>2022-02-14T11:38:48Z</time>
      </trkpt>
      <trkpt lat="47.24534" lon="-1.57961">
        <ele>31</ele>
        <time>2022-02-14T11:38:58Z</time>
      </trkpt>
      <trkpt lat="47.24526" lon="-1.57982">
        <ele>32</ele>
        <time>2022-02-14T11:39:11Z</time>
      </trkpt>
      <trkpt lat="47.24524" lon="-1.57993">
        <ele>32</ele>
        <time>2022-02-14T11:39:17Z</time>
      </trkpt>
      <trkpt lat="47.24523" lon="-1.58004">
        <ele>32</ele>
        <time>2022-02-14T11:39:23Z</time>
      </trkpt>
      <trkpt lat="47.24525" lon="-1.5801">
        <ele>32</ele>
        <time>2022-02-14T11:39:27Z</time>
      </trkpt>
      <trkpt lat="47.24531" lon="-1.58011">
        <ele>32</ele>
        <time>2022-02-14T11:39:32Z</time>
      </trkpt>
      <trkpt lat="47.24536" lon="-1.58023">
        <ele>32</ele>
        <time>2022-02-14T11:39:39Z</time>
      </trkpt>
      <trkpt lat="47.24545" lon="-1.58033">
        <ele>32</ele>
        <time>2022-02-14T11:39:48Z</time>
      </trkpt>
      <trkpt lat="47.24552" lon="-1.58048">
        <ele>33</ele>
        <time>2022-02-14T11:39:58Z</time>
      </trkpt>
      <trkpt lat="47.24528" lon="-1.58071">
        <ele>34</ele>
        <time>2022-02-14T11:40:21Z</time>
      </trkpt>
      <trkpt lat="47.24522" lon="-1.58076">
        <ele>34</ele>
        <time>2022-02-14T11:40:27Z</time>
      </trkpt>
      <trkpt lat="47.24509" lon="-1.5808">
        <ele>34</ele>
        <time>2022-02-14T11:40:37Z</time>
      </trkpt>
      <trkpt lat="47.24502" lon="-1.58106">
        <ele>34</ele>
        <time>2022-02-14T11:40:53Z</time>
      </trkpt>
      <trkpt lat="47.24487" lon="-1.58132">
        <ele>34</ele>
        <time>2022-02-14T11:41:11Z</time>
      </trkpt>
      <trkpt lat="47.2446" lon="-1.58158">
        <ele>34</ele>
        <time>2022-02-14T11:41:37Z</time>
      </trkpt>
      <trkpt lat="47.24437" lon="-1.58191">
        <ele>33</ele>
        <time>2022-02-14T11:42:03Z</time>
      </trkpt>
      <trkpt lat="47.24415" lon="-1.58214">
        <ele>33</ele>
        <time>2022-02-14T11:42:24Z</time>
      </trkpt>
      <trkpt lat="47.24402" lon="-1.58223">
        <ele>33</ele>
        <time>2022-02-14T11:42:36Z</time>
      </trkpt>
      <trkpt lat="47.24392" lon="-1.58225">
        <ele>33</ele>
        <time>2022-02-14T11:42:44Z</time>
      </trkpt>
      <trkpt lat="47.24389" lon="-1.58226">
        <ele>34</ele>
        <time>2022-02-14T11:42:46Z</time>
      </trkpt>
      <trkpt lat="47.24372" lon="-1.58228">
        <ele>34</ele>
        <time>2022-02-14T11:43:00Z</time>
      </trkpt>
      <trkpt lat="47.24361" lon="-1.58226">
        <ele>35</ele>
        <time>2022-02-14T11:43:09Z</time>
      </trkpt>
      <trkpt lat="47.24368" lon="-1.582">
        <ele>35</ele>
        <time>2022-02-14T11:43:24Z</time>
      </trkpt>
      <trkpt lat="47.244" lon="-1.58124">
        <ele>36</ele>
        <time>2022-02-14T11:44:13Z</time>
      </trkpt>
      <trkpt lat="47.24408" lon="-1.58092">
        <ele>37</ele>
        <time>2022-02-14T11:44:31Z</time>
      </trkpt>
      <trkpt lat="47.24412" lon="-1.58063">
        <ele>37</ele>
        <time>2022-02-14T11:44:47Z</time>
      </trkpt>
      <trkpt lat="47.2441" lon="-1.58045">
        <ele>37</ele>
        <time>2022-02-14T11:44:57Z</time>
      </trkpt>
      <trkpt lat="47.24403" lon="-1.58022">
        <ele>36</ele>
        <time>2022-02-14T11:45:11Z</time>
      </trkpt>
      <trkpt lat="47.24395" lon="-1.58002">
        <ele>36</ele>
        <time>2022-02-14T11:45:24Z</time>
      </trkpt>
      <trkpt lat="47.24372" lon="-1.57975">
        <ele>36</ele>
        <time>2022-02-14T11:45:47Z</time>
      </trkpt>
      <trkpt lat="47.24342" lon="-1.5795">
        <ele>36</ele>
        <time>2022-02-14T11:46:15Z</time>
      </trkpt>
      <trkpt lat="47.24334" lon="-1.57939">
        <ele>36</ele>
        <time>2022-02-14T11:46:23Z</time>
      </trkpt>
      <trkpt lat="47.2433" lon="-1.57928">
        <ele>36</ele>
        <time>2022-02-14T11:46:30Z</time>
      </trkpt>
      <trkpt lat="47.24329" lon="-1.57913">
        <ele>36</ele>
        <time>2022-02-14T11:46:38Z</time>
      </trkpt>
      <trkpt lat="47.24332" lon="-1.57862">
        <ele>36</ele>
        <time>2022-02-14T11:47:06Z</time>
      </trkpt>
      <trkpt lat="47.24323" lon="-1.57864">
        <ele>36</ele>
        <time>2022-02-14T11:47:14Z</time>
      </trkpt>
      <trkpt lat="47.24297" lon="-1.57882">
        <ele>37</ele>
        <time>2022-02-14T11:47:37Z</time>
      </trkpt>
      <trkpt lat="47.24278" lon="-1.57886">
        <ele>38</ele>
        <time>2022-02-14T11:47:52Z</time>
      </trkpt>
      <trkpt lat="47.24258" lon="-1.57881">
        <ele>38</ele>
        <time>2022-02-14T11:48:08Z</time>
      </trkpt>
      <trkpt lat="47.24232" lon="-1.57865">
        <ele>39</ele>
        <time>2022-02-14T11:48:31Z</time>
      </trkpt>
      <trkpt lat="47.24211" lon="-1.57849">
        <ele>39</ele>
        <time>2022-02-14T11:48:50Z</time>
      </trkpt>
      <trkpt lat="47.24205" lon="-1.5783">
        <ele>38</ele>
        <time>2022-02-14T11:49:01Z</time>
      </trkpt>
      <trkpt lat="47.24207" lon="-1.57812">
        <ele>39</ele>
        <time>2022-02-14T11:49:11Z</time>
      </trkpt>
      <trkpt lat="47.2421" lon="-1.57805">
        <ele>39</ele>
        <time>2022-02-14T11:49:15Z</time>
      </trkpt>
      <trkpt lat="47.24218" lon="-1.57795">
        <ele>39</ele>
        <time>2022-02-14T11:49:24Z</time>
      </trkpt>
      <trkpt lat="47.24245" lon="-1.57788">
        <ele>39</ele>
        <time>2022-02-14T11:49:46Z</time>
      </trkpt>
      <trkpt lat="47.24296" lon="-1.57792">
        <ele>38</ele>
        <time>2022-02-14T11:50:27Z</time>
      </trkpt>
      <trkpt lat="47.24308" lon="-1.57781">
        <ele>38</ele>
        <time>2022-02-14T11:50:38Z</time>
      </trkpt>
      <trkpt lat="47.24318" lon="-1.57781">
        <ele>37</ele>
        <time>2022-02-14T11:50:46Z</time>
      </trkpt>
      <trkpt lat="47.24378" lon="-1.57765">
        <ele>36</ele>
        <time>2022-02-14T11:51:35Z</time>
      </trkpt>
      <trkpt lat="47.24394" lon="-1.57756">
        <ele>36</ele>
        <time>2022-02-14T11:51:49Z</time>
      </trkpt>
      <trkpt lat="47.24425" lon="-1.57748">
        <ele>36</ele>
        <time>2022-02-14T11:52:14Z</time>
      </trkpt>
      <trkpt lat="47.24456" lon="-1.57731">
        <ele>34</ele>
        <time>2022-02-14T11:52:40Z</time>
      </trkpt>
      <trkpt lat="47.24469" lon="-1.57736">
        <ele>34</ele>
        <time>2022-02-14T11:52:51Z</time>
      </trkpt>
      <trkpt lat="47.24475" lon="-1.57722">
        <ele>34</ele>
        <time>2022-02-14T11:53:00Z</time>
      </trkpt>
      <trkpt lat="47.245" lon="-1.57695">
        <ele>32</ele>
        <time>2022-02-14T11:53:25Z</time>
      </trkpt>
      <trkpt lat="47.24513" lon="-1.57695">
        <ele>30</ele>
        <time>2022-02-14T11:53:35Z</time>
      </trkpt>
      <trkpt lat="47.24528" lon="-1.57684">
        <ele>28</ele>
        <time>2022-02-14T11:53:49Z</time>
      </trkpt>
      <trkpt lat="47.24538" lon="-1.57668">
        <ele>26</ele>
        <time>2022-02-14T11:54:00Z</time>
      </trkpt>
      <trkpt lat="47.24536" lon="-1.57661">
        <ele>25</ele>
        <time>2022-02-14T11:54:05Z</time>
      </trkpt>
      <trkpt lat="47.24571" lon="-1.5767">
        <ele>21</ele>
        <time>2022-02-14T11:54:33Z</time>
      </trkpt>
      <trkpt lat="47.24588" lon="-1.57682">
        <ele>19</ele>
        <time>2022-02-14T11:54:48Z</time>
      </trkpt>
      <trkpt lat="47.24636" lon="-1.57724">
        <ele>16</ele>
        <time>2022-02-14T11:55:33Z</time>
      </trkpt>
      <trkpt lat="47.24672" lon="-1.57747">
        <ele>12</ele>
        <time>2022-02-14T11:56:04Z</time>
      </trkpt>
      <trkpt lat="47.24678" lon="-1.57756">
        <ele>12</ele>
        <time>2022-02-14T11:56:11Z</time>
      </trkpt>
      <trkpt lat="47.24686" lon="-1.57749">
        <ele>12</ele>
        <time>2022-02-14T11:56:19Z</time>
      </trkpt>
      <trkpt lat="47.24694" lon="-1.57758">
        <ele>12</ele>
        <time>2022-02-14T11:56:27Z</time>
      </trkpt>
      <trkpt lat="47.24696" lon="-1.57745">
        <ele>11</ele>
        <time>2022-02-14T11:56:34Z</time>
      </trkpt>
      <trkpt lat="47.247" lon="-1.57739">
        <ele>11</ele>
        <time>2022-02-14T11:56:38Z</time>
      </trkpt>
      <trkpt lat="47.24706" lon="-1.57741">
        <ele>11</ele>
        <time>2022-02-14T11:56:43Z</time>
      </trkpt>
      <trkpt lat="47.24721" lon="-1.57745">
        <ele>11</ele>
        <time>2022-02-14T11:56:56Z</time>
      </trkpt>
      <trkpt lat="47.24727" lon="-1.57747">
        <ele>11</ele>
        <time>2022-02-14T11:57:00Z</time>
      </trkpt>
      <trkpt lat="47.24725" lon="-1.57717">
        <ele>11</ele>
        <time>2022-02-14T11:57:17Z</time>
      </trkpt>
      <trkpt lat="47.24681" lon="-1.57626">
        <ele>12</ele>
        <time>2022-02-14T11:58:18Z</time>
      </trkpt>
      <trkpt lat="47.24668" lon="-1.57641">
        <ele>12</ele>
        <time>2022-02-14T11:58:31Z</time>
      </trkpt>
      <trkpt lat="47.24584" lon="-1.57544">
        <ele>16</ele>
        <time>2022-02-14T11:59:56Z</time>
      </trkpt>
      <trkpt lat="47.24537" lon="-1.57512">
        <ele>20</ele>
        <time>2022-02-14T12:00:38Z</time>
      </trkpt>
      <trkpt lat="47.2452" lon="-1.57469">
        <ele>19</ele>
        <time>2022-02-14T12:01:05Z</time>
      </trkpt>
      <trkpt lat="47.24512" lon="-1.57426">
        <ele>17</ele>
        <time>2022-02-14T12:01:29Z</time>
      </trkpt>
      <trkpt lat="47.24516" lon="-1.57377">
        <ele>17</ele>
        <time>2022-02-14T12:01:56Z</time>
      </trkpt>
      <trkpt lat="47.24508" lon="-1.57338">
        <ele>17</ele>
        <time>2022-02-14T12:02:18Z</time>
      </trkpt>
      <trkpt lat="47.24481" lon="-1.57297">
        <ele>19</ele>
        <time>2022-02-14T12:02:49Z</time>
      </trkpt>
      <trkpt lat="47.24474" lon="-1.57238">
        <ele>19</ele>
        <time>2022-02-14T12:03:22Z</time>
      </trkpt>
      <trkpt lat="47.24483" lon="-1.57154">
        <ele>16</ele>
        <time>2022-02-14T12:04:08Z</time>
      </trkpt>
      <trkpt lat="47.24492" lon="-1.57105">
        <ele>16</ele>
        <time>2022-02-14T12:04:35Z</time>
      </trkpt>
      <trkpt lat="47.24475" lon="-1.57058">
        <ele>16</ele>
        <time>2022-02-14T12:05:04Z</time>
      </trkpt>
      <trkpt lat="47.2439" lon="-1.56913">
        <ele>15</ele>
        <time>2022-02-14T12:06:48Z</time>
      </trkpt>
      <trkpt lat="47.24369" lon="-1.56867">
        <ele>18</ele>
        <time>2022-02-14T12:07:19Z</time>
      </trkpt>
      <trkpt lat="47.24358" lon="-1.56807">
        <ele>20</ele>
        <time>2022-02-14T12:07:52Z</time>
      </trkpt>
      <trkpt lat="47.24349" lon="-1.56771">
        <ele>21</ele>
        <time>2022-02-14T12:08:13Z</time>
      </trkpt>
      <trkpt lat="47.24338" lon="-1.5668">
        <ele>23</ele>
        <time>2022-02-14T12:09:04Z</time>
      </trkpt>
      <trkpt lat="47.24333" lon="-1.5663">
        <ele>23</ele>
        <time>2022-02-14T12:09:31Z</time>
      </trkpt>
      <trkpt lat="47.24333" lon="-1.56547">
        <ele>24</ele>
        <time>2022-02-14T12:10:16Z</time>
      </trkpt>
      <trkpt lat="47.24338" lon="-1.56532">
        <ele>24</ele>
        <time>2022-02-14T12:10:25Z</time>
      </trkpt>
      <trkpt lat="47.2435" lon="-1.56511">
        <ele>22</ele>
        <time>2022-02-14T12:10:40Z</time>
      </trkpt>
      <trkpt lat="47.24352" lon="-1.56494">
        <ele>22</ele>
        <time>2022-02-14T12:10:49Z</time>
      </trkpt>
      <trkpt lat="47.24355" lon="-1.56435">
        <ele>22</ele>
        <time>2022-02-14T12:11:22Z</time>
      </trkpt>
      <trkpt lat="47.24362" lon="-1.56427">
        <ele>22</ele>
        <time>2022-02-14T12:11:29Z</time>
      </trkpt>
      <trkpt lat="47.24367" lon="-1.56416">
        <ele>21</ele>
        <time>2022-02-14T12:11:36Z</time>
      </trkpt>
      <trkpt lat="47.24369" lon="-1.56398">
        <ele>21</ele>
        <time>2022-02-14T12:11:46Z</time>
      </trkpt>
      <trkpt lat="47.24366" lon="-1.56378">
        <ele>21</ele>
        <time>2022-02-14T12:11:57Z</time>
      </trkpt>
      <trkpt lat="47.24365" lon="-1.56352">
        <ele>21</ele>
        <time>2022-02-14T12:12:11Z</time>
      </trkpt>
      <trkpt lat="47.24368" lon="-1.56325">
        <ele>21</ele>
        <time>2022-02-14T12:12:26Z</time>
      </trkpt>
      <trkpt lat="47.24373" lon="-1.563">
        <ele>20</ele>
        <time>2022-02-14T12:12:40Z</time>
      </trkpt>
      <trkpt lat="47.24373" lon="-1.56267">
        <ele>21</ele>
        <time>2022-02-14T12:12:58Z</time>
      </trkpt>
      <trkpt lat="47.2437" lon="-1.56244">
        <ele>21</ele>
        <time>2022-02-14T12:13:11Z</time>
      </trkpt>
      <trkpt lat="47.24363" lon="-1.56223">
        <ele>20</ele>
        <time>2022-02-14T12:13:24Z</time>
      </trkpt>
      <trkpt lat="47.2432" lon="-1.56156">
        <ele>18</ele>
        <time>2022-02-14T12:14:14Z</time>
      </trkpt>
      <trkpt lat="47.24285" lon="-1.5612">
        <ele>19</ele>
        <time>2022-02-14T12:14:48Z</time>
      </trkpt>
      <trkpt lat="47.24273" lon="-1.56096">
        <ele>18</ele>
        <time>2022-02-14T12:15:04Z</time>
      </trkpt>
      <trkpt lat="47.24264" lon="-1.56071">
        <ele>18</ele>
        <time>2022-02-14T12:15:19Z</time>
      </trkpt>
      <trkpt lat="47.24262" lon="-1.56055">
        <ele>17</ele>
        <time>2022-02-14T12:15:28Z</time>
      </trkpt>
      <trkpt lat="47.2427" lon="-1.5604">
        <ele>16</ele>
        <time>2022-02-14T12:15:39Z</time>
      </trkpt>
      <trkpt lat="47.24267" lon="-1.56013">
        <ele>16</ele>
        <time>2022-02-14T12:15:54Z</time>
      </trkpt>
      <trkpt lat="47.24257" lon="-1.55968">
        <ele>13</ele>
        <time>2022-02-14T12:16:19Z</time>
      </trkpt>
      <trkpt lat="47.24252" lon="-1.55926">
        <ele>11</ele>
        <time>2022-02-14T12:16:42Z</time>
      </trkpt>
      <trkpt lat="47.24247" lon="-1.55879">
        <ele>10</ele>
        <time>2022-02-14T12:17:08Z</time>
      </trkpt>
      <trkpt lat="47.24238" lon="-1.55758">
        <ele>11</ele>
        <time>2022-02-14T12:18:14Z</time>
      </trkpt>
      <trkpt lat="47.24237" lon="-1.55749">
        <ele>11</ele>
        <time>2022-02-14T12:18:19Z</time>
      </trkpt>
      <trkpt lat="47.24232" lon="-1.55736">
        <ele>12</ele>
        <time>2022-02-14T12:18:28Z</time>
      </trkpt>
      <trkpt lat="47.24228" lon="-1.55659">
        <ele>12</ele>
        <time>2022-02-14T12:19:10Z</time>
      </trkpt>
      <trkpt lat="47.24312" lon="-1.55653">
        <ele>13</ele>
        <time>2022-02-14T12:20:17Z</time>
      </trkpt>
      <trkpt lat="47.24319" lon="-1.55658">
        <ele>13</ele>
        <time>2022-02-14T12:20:23Z</time>
      </trkpt>
      <trkpt lat="47.24326" lon="-1.55659">
        <ele>13</ele>
        <time>2022-02-14T12:20:29Z</time>
      </trkpt>
      <trkpt lat="47.24333" lon="-1.55665">
        <ele>14</ele>
        <time>2022-02-14T12:20:35Z</time>
      </trkpt>
      <trkpt lat="47.24338" lon="-1.55676">
        <ele>14</ele>
        <time>2022-02-14T12:20:42Z</time>
      </trkpt>
      <trkpt lat="47.24345" lon="-1.55679">
        <ele>14</ele>
        <time>2022-02-14T12:20:48Z</time>
      </trkpt>
      <trkpt lat="47.24349" lon="-1.55687">
        <ele>15</ele>
        <time>2022-02-14T12:20:54Z</time>
      </trkpt>
      <trkpt lat="47.24345" lon="-1.55679">
        <ele>14</ele>
        <time>2022-02-14T12:20:59Z</time>
      </trkpt>
      <trkpt lat="47.24354" lon="-1.55676">
        <ele>15</ele>
        <time>2022-02-14T12:21:06Z</time>
      </trkpt>
      <trkpt lat="47.24359" lon="-1.55666">
        <ele>15</ele>
        <time>2022-02-14T12:21:13Z</time>
      </trkpt>
      <trkpt lat="47.24362" lon="-1.55692">
        <ele>15</ele>
        <time>2022-02-14T12:21:28Z</time>
      </trkpt>
      <trkpt lat="47.24371" lon="-1.55692">
        <ele>16</ele>
        <time>2022-02-14T12:21:35Z</time>
      </trkpt>
      <trkpt lat="47.24417" lon="-1.55722">
        <ele>19</ele>
        <time>2022-02-14T12:22:15Z</time>
      </trkpt>
      <trkpt lat="47.2447" lon="-1.55757">
        <ele>21</ele>
        <time>2022-02-14T12:23:01Z</time>
      </trkpt>
      <trkpt lat="47.24487" lon="-1.55775">
        <ele>22</ele>
        <time>2022-02-14T12:23:18Z</time>
      </trkpt>
      <trkpt lat="47.24527" lon="-1.55806">
        <ele>23</ele>
        <time>2022-02-14T12:23:54Z</time>
      </trkpt>
      <trkpt lat="47.24597" lon="-1.55844">
        <ele>25</ele>
        <time>2022-02-14T12:24:54Z</time>
      </trkpt>
      <trkpt lat="47.24636" lon="-1.5587">
        <ele>23</ele>
        <time>2022-02-14T12:25:28Z</time>
      </trkpt>
      <trkpt lat="47.24703" lon="-1.55875">
        <ele>23</ele>
        <time>2022-02-14T12:26:22Z</time>
      </trkpt>
      <trkpt lat="47.24754" lon="-1.55856">
        <ele>25</ele>
        <time>2022-02-14T12:27:04Z</time>
      </trkpt>
      <trkpt lat="47.24763" lon="-1.55844">
        <ele>26</ele>
        <time>2022-02-14T12:27:14Z</time>
      </trkpt>
      <trkpt lat="47.24801" lon="-1.55855">
        <ele>27</ele>
        <time>2022-02-14T12:27:45Z</time>
      </trkpt>
      <trkpt lat="47.24821" lon="-1.5587">
        <ele>28</ele>
        <time>2022-02-14T12:28:03Z</time>
      </trkpt>
      <trkpt lat="47.24834" lon="-1.5587">
        <ele>29</ele>
        <time>2022-02-14T12:28:13Z</time>
      </trkpt>
      <trkpt lat="47.24852" lon="-1.55857">
        <ele>29</ele>
        <time>2022-02-14T12:28:29Z</time>
      </trkpt>
      <trkpt lat="47.24854" lon="-1.55928">
        <ele>28</ele>
        <time>2022-02-14T12:29:08Z</time>
      </trkpt>
      <trkpt lat="47.24851" lon="-1.55943">
        <ele>27</ele>
        <time>2022-02-14T12:29:17Z</time>
      </trkpt>
      <trkpt lat="47.24834" lon="-1.55982">
        <ele>26</ele>
        <time>2022-02-14T12:29:42Z</time>
      </trkpt>
      <trkpt lat="47.24826" lon="-1.56005">
        <ele>24</ele>
        <time>2022-02-14T12:29:56Z</time>
      </trkpt>
      <trkpt lat="47.24813" lon="-1.56026">
        <ele>23</ele>
        <time>2022-02-14T12:30:11Z</time>
      </trkpt>
      <trkpt lat="47.24808" lon="-1.56043">
        <ele>22</ele>
        <time>2022-02-14T12:30:21Z</time>
      </trkpt>
      <trkpt lat="47.24807" lon="-1.56047">
        <ele>22</ele>
        <time>2022-02-14T12:30:24Z</time>
      </trkpt>
      <trkpt lat="47.24716" lon="-1.56002">
        <ele>17</ele>
        <time>2022-02-14T12:31:40Z</time>
      </trkpt>
      <trkpt lat="47.24685" lon="-1.5599">
        <ele>17</ele>
        <time>2022-02-14T12:32:06Z</time>
      </trkpt>
      <trkpt lat="47.24663" lon="-1.55991">
        <ele>16</ele>
        <time>2022-02-14T12:32:24Z</time>
      </trkpt>
      <trkpt lat="47.24636" lon="-1.55997">
        <ele>18</ele>
        <time>2022-02-14T12:32:46Z</time>
      </trkpt>
      <trkpt lat="47.24612" lon="-1.56019">
        <ele>19</ele>
        <time>2022-02-14T12:33:08Z</time>
      </trkpt>
      <trkpt lat="47.24595" lon="-1.56046">
        <ele>21</ele>
        <time>2022-02-14T12:33:28Z</time>
      </trkpt>
      <trkpt lat="47.24584" lon="-1.56079">
        <ele>23</ele>
        <time>2022-02-14T12:33:48Z</time>
      </trkpt>
      <trkpt lat="47.24579" lon="-1.56108">
        <ele>24</ele>
        <time>2022-02-14T12:34:05Z</time>
      </trkpt>
      <trkpt lat="47.24568" lon="-1.56108">
        <ele>24</ele>
        <time>2022-02-14T12:34:13Z</time>
      </trkpt>
      <trkpt lat="47.24543" lon="-1.56114">
        <ele>24</ele>
        <time>2022-02-14T12:34:34Z</time>
      </trkpt>
      <trkpt lat="47.24524" lon="-1.56123">
        <ele>25</ele>
        <time>2022-02-14T12:34:50Z</time>
      </trkpt>
    </trkseg>
  </trk>
</gpx>